Time;durP1;ratioP1;P1;durP2;ratioP2;P2;SDS_P1;SDS_P2;PMS_P1;PMS_P2;Temp;Humidity;BMP_temperature;BMP_pressure;BME280_temperature;BME280_humidity;BME280_pressure;Samples;Min_cycle;Max_cycle;Signal;HPM_P1;HPM_P2
2022/06/29 00:00:16;;;;;;;6.60;3.10;;;17.40;99.90;;;;;;5023840;28;20021;-70
2022/06/29 00:02:43;;;;;;;4.93;3.40;;;17.30;99.90;;;;;;5024324;28;20022;-68
2022/06/29 00:05:11;;;;;;;5.50;3.60;;;17.30;99.90;;;;;;5024137;28;20030;-69
2022/06/29 00:07:37;;;;;;;3.33;2.58;;;17.20;99.90;;;;;;5024140;28;20018;-69
2022/06/29 00:10:04;;;;;;;6.68;3.55;;;17.10;99.90;;;;;;5023765;28;20029;-70
2022/06/29 00:12:30;;;;;;;5.60;2.95;;;17.20;99.90;;;;;;5023917;28;20106;-70
2022/06/29 00:14:56;;;;;;;4.93;3.25;;;17.10;99.90;;;;;;5022869;28;20022;-69
2022/06/29 00:17:22;;;;;;;4.70;3.20;;;17.10;99.90;;;;;;5024031;28;20106;-70
2022/06/29 00:19:50;;;;;;;6.00;3.53;;;17.00;99.90;;;;;;5022561;28;20654;-70
2022/06/29 00:22:16;;;;;;;5.45;3.45;;;17.00;99.90;;;;;;5024079;28;20018;-69
2022/06/29 00:24:42;;;;;;;4.32;3.30;;;17.00;99.90;;;;;;5024372;28;20030;-69
2022/06/29 00:27:08;;;;;;;5.05;2.97;;;17.00;99.90;;;;;;5023065;28;20085;-69
2022/06/29 00:29:34;;;;;;;5.10;3.13;;;17.00;99.90;;;;;;5023839;28;20064;-69
2022/06/29 00:32:00;;;;;;;4.15;3.00;;;16.90;99.90;;;;;;5023730;28;20029;-69
2022/06/29 00:34:25;;;;;;;4.20;2.75;;;16.90;99.90;;;;;;5023572;28;20069;-70
2022/06/29 00:36:51;;;;;;;8.10;3.63;;;16.80;99.90;;;;;;5023865;28;20029;-70
2022/06/29 00:39:18;;;;;;;5.15;3.13;;;16.80;99.90;;;;;;5023672;28;20081;-70
2022/06/29 00:41:45;;;;;;;4.25;3.20;;;16.80;99.90;;;;;;5023322;28;20022;-70
2022/06/29 00:44:18;;;;;;;10.77;3.78;;;16.70;99.90;;;;;;5023191;28;20026;-68
2022/06/29 00:46:53;;;;;;;5.88;3.63;;;16.70;99.90;;;;;;5021688;28;20127;-70
2022/06/29 00:49:21;;;;;;;9.57;3.63;;;16.70;99.90;;;;;;5023139;28;20037;-69
2022/06/29 00:51:49;;;;;;;3.55;2.70;;;16.60;99.90;;;;;;5023140;28;20036;-69
2022/06/29 00:54:23;;;;;;;5.88;3.63;;;16.60;99.90;;;;;;5022600;28;20022;-71
2022/06/29 00:56:50;;;;;;;5.68;3.08;;;16.50;99.90;;;;;;5023165;28;20026;-69
2022/06/29 00:59:22;;;;;;;4.32;3.08;;;16.50;99.90;;;;;;5023399;28;20049;-69
2022/06/29 01:01:48;;;;;;;6.88;3.97;;;16.40;99.90;;;;;;5022976;28;20436;-70
2022/06/29 01:04:15;;;;;;;5.43;3.33;;;16.30;99.90;;;;;;5023008;28;20488;-70
2022/06/29 01:06:41;;;;;;;7.68;3.55;;;16.40;99.90;;;;;;5023351;28;20085;-68
2022/06/29 01:09:07;;;;;;;6.35;3.63;;;16.30;99.90;;;;;;5022437;28;20703;-68
2022/06/29 01:11:33;;;;;;;5.57;3.63;;;16.30;99.90;;;;;;5023025;28;20075;-69
2022/06/29 01:13:59;;;;;;;8.90;3.33;;;16.20;99.90;;;;;;5023060;28;20156;-69
2022/06/29 01:16:26;;;;;;;9.20;3.53;;;16.20;99.90;;;;;;5022475;28;20029;-69
2022/06/29 01:18:51;;;;;;;6.47;3.22;;;16.20;99.90;;;;;;5022663;28;20068;-69
2022/06/29 01:21:19;;;;;;;5.80;3.45;;;16.20;99.90;;;;;;5023170;28;20063;-69
2022/06/29 01:23:45;;;;;;;4.60;3.03;;;16.20;99.90;;;;;;5022503;28;20135;-69
2022/06/29 01:26:11;;;;;;;6.28;3.28;;;16.10;99.90;;;;;;5023358;28;20474;-68
2022/06/29 01:28:47;;;;;;;6.78;3.83;;;16.10;99.90;;;;;;5022311;28;20045;-68
2022/06/29 01:31:15;;;;;;;10.15;4.25;;;16.10;99.90;;;;;;5022145;28;20033;-70
2022/06/29 01:33:46;;;;;;;4.30;3.25;;;16.00;99.90;;;;;;5023118;28;20040;-69
2022/06/29 01:36:12;;;;;;;7.32;4.30;;;16.00;99.90;;;;;;5022638;28;20018;-68
2022/06/29 01:38:38;;;;;;;5.72;3.40;;;16.00;99.90;;;;;;5022601;28;20033;-69
2022/06/29 01:41:06;;;;;;;3.45;2.78;;;16.00;99.90;;;;;;5022468;28;20026;-69
2022/06/29 01:43:32;;;;;;;3.80;3.10;;;15.90;99.90;;;;;;5021426;28;20032;-70
2022/06/29 01:45:58;;;;;;;6.43;3.90;;;15.80;99.90;;;;;;5022384;28;20042;-69
2022/06/29 01:48:24;;;;;;;5.55;3.55;;;15.80;99.90;;;;;;5022085;28;20026;-69
2022/06/29 01:50:50;;;;;;;7.82;3.30;;;15.80;99.90;;;;;;5022234;28;20433;-68
2022/06/29 01:53:16;;;;;;;5.47;3.10;;;15.90;99.90;;;;;;5022156;28;20025;-71
2022/06/29 01:55:44;;;;;;;5.28;3.10;;;15.70;99.90;;;;;;5022397;28;20429;-69
2022/06/29 01:58:10;;;;;;;9.35;3.45;;;15.80;99.90;;;;;;5022036;28;20045;-67
2022/06/29 02:00:36;;;;;;;5.20;2.70;;;15.80;99.90;;;;;;5021912;28;20037;-70
2022/06/29 02:03:02;;;;;;;6.60;3.10;;;15.90;99.90;;;;;;5022105;28;20065;-69
2022/06/29 02:05:27;;;;;;;4.53;2.72;;;15.80;99.90;;;;;;5022074;28;20024;-68
2022/06/29 02:07:56;;;;;;;3.78;2.47;;;15.80;99.90;;;;;;5022342;28;20026;-69
2022/06/29 02:10:28;;;;;;;7.07;2.92;;;15.80;99.90;;;;;;5022133;28;20072;-70
2022/06/29 02:12:54;;;;;;;4.70;3.03;;;15.80;99.90;;;;;;5022161;28;20033;-70
2022/06/29 02:15:21;;;;;;;6.50;3.03;;;15.80;99.90;;;;;;5022657;28;20026;-70
2022/06/29 02:17:46;;;;;;;5.50;2.92;;;15.80;99.90;;;;;;5022127;28;20449;-71
2022/06/29 02:20:13;;;;;;;6.22;3.30;;;15.70;99.90;;;;;;5022062;28;20038;-69
2022/06/29 02:22:40;;;;;;;4.60;2.83;;;15.70;99.90;;;;;;5022094;28;20033;-70
2022/06/29 02:25:06;;;;;;;15.75;3.63;;;15.70;99.90;;;;;;5021830;28;20022;-69
2022/06/29 02:27:32;;;;;;;6.25;2.78;;;15.70;99.90;;;;;;5022218;28;20029;-70
2022/06/29 02:29:58;;;;;;;5.20;2.97;;;15.70;99.90;;;;;;5022083;28;20025;-70
2022/06/29 02:35:08;;;;;;;2.75;2.17;;;15.60;99.90;;;;;;5022086;28;20044;-69
2022/06/29 02:37:34;;;;;;;5.55;2.85;;;15.60;99.90;;;;;;5021568;28;20093;-70
2022/06/29 02:39:59;;;;;;;4.05;2.95;;;15.60;99.90;;;;;;5021669;28;20109;-69
2022/06/29 02:42:26;;;;;;;5.32;3.33;;;15.50;99.90;;;;;;5022760;28;20080;-69
2022/06/29 02:44:52;;;;;;;5.30;3.17;;;15.50;99.90;;;;;;5024937;28;20045;-69
2022/06/29 02:47:18;;;;;;;4.28;2.65;;;15.50;99.90;;;;;;5025443;28;20050;-69
2022/06/29 02:49:44;;;;;;;4.57;3.28;;;15.40;99.90;;;;;;5026122;28;20037;-70
2022/06/29 02:52:09;;;;;;;6.68;3.15;;;15.40;99.90;;;;;;5025001;28;20049;-70
2022/06/29 02:54:35;;;;;;;5.40;3.22;;;15.40;99.90;;;;;;5025783;28;20026;-71
2022/06/29 02:57:01;;;;;;;5.82;3.03;;;15.40;99.90;;;;;;5025735;28;20100;-69
2022/06/29 02:59:27;;;;;;;4.80;2.65;;;15.40;99.90;;;;;;5025300;28;20080;-71
2022/06/29 03:01:52;;;;;;;3.75;2.90;;;15.40;99.90;;;;;;5025310;28;20022;-71
2022/06/29 03:04:18;;;;;;;3.30;2.42;;;15.40;99.90;;;;;;5025396;28;20026;-71
2022/06/29 03:06:44;;;;;;;5.75;2.42;;;15.30;99.90;;;;;;5025592;28;20026;-69
2022/06/29 03:09:09;;;;;;;4.63;2.63;;;15.30;99.90;;;;;;5025735;28;20029;-70
2022/06/29 03:11:35;;;;;;;5.97;2.95;;;15.30;99.90;;;;;;5025131;28;20022;-70
2022/06/29 03:14:03;;;;;;;4.93;3.05;;;15.30;99.90;;;;;;5025297;28;20025;-70
2022/06/29 03:16:29;;;;;;;3.40;2.47;;;15.30;99.90;;;;;;5024906;28;20462;-70
2022/06/29 03:18:55;;;;;;;2.95;2.13;;;15.30;99.90;;;;;;5024748;28;20034;-70
2022/06/29 03:21:20;;;;;;;9.60;2.90;;;15.30;99.90;;;;;;5024987;28;20116;-70
2022/06/29 03:23:46;;;;;;;5.18;3.15;;;15.30;99.90;;;;;;5025293;28;20025;-69
2022/06/29 03:26:12;;;;;;;3.50;2.40;;;15.40;99.90;;;;;;5025112;28;20060;-70
2022/06/29 03:28:38;;;;;;;3.85;2.80;;;15.30;99.90;;;;;;5025184;28;20057;-70
2022/06/29 03:31:04;;;;;;;4.75;2.50;;;15.30;99.90;;;;;;5024994;28;20030;-70
2022/06/29 03:33:33;;;;;;;5.00;2.65;;;15.30;99.90;;;;;;5024252;28;20048;-70
2022/06/29 03:35:59;;;;;;;8.48;3.15;;;15.30;99.90;;;;;;5024677;28;20017;-70
2022/06/29 03:38:24;;;;;;;3.88;2.78;;;15.40;99.90;;;;;;5024640;28;20129;-70
2022/06/29 03:40:51;;;;;;;5.45;2.72;;;15.40;99.90;;;;;;5024604;28;20362;-71
2022/06/29 03:43:17;;;;;;;7.60;2.90;;;15.40;99.90;;;;;;5024552;28;20413;-70
2022/06/29 03:45:43;;;;;;;3.78;2.70;;;15.40;99.90;;;;;;5024264;28;20042;-71
2022/06/29 03:48:08;;;;;;;11.57;3.38;;;15.40;99.90;;;;;;5024076;28;20037;-69
2022/06/29 03:50:34;;;;;;;4.65;2.45;;;15.40;99.90;;;;;;5024582;28;20049;-69
2022/06/29 03:53:00;;;;;;;4.00;2.47;;;15.40;99.90;;;;;;5024254;28;20021;-70
2022/06/29 03:55:25;;;;;;;6.88;2.95;;;15.50;99.90;;;;;;5024504;28;20033;-69
2022/06/29 03:57:51;;;;;;;2.75;2.35;;;15.50;99.90;;;;;;5024373;28;20030;-71
2022/06/29 04:00:17;;;;;;;3.63;2.22;;;15.50;99.90;;;;;;5024394;28;20088;-71
2022/06/29 04:02:47;;;;;;;8.65;2.80;;;15.50;99.90;;;;;;5024211;28;20030;-72
2022/06/29 04:05:13;;;;;;;3.08;2.20;;;15.50;99.90;;;;;;5024511;28;20030;-70
2022/06/29 04:07:38;;;;;;;3.25;2.20;;;15.50;99.90;;;;;;5024118;28;20320;-70
2022/06/29 04:10:05;;;;;;;3.90;2.55;;;15.50;99.90;;;;;;5024451;28;20047;-70
2022/06/29 04:12:33;;;;;;;3.72;2.00;;;15.50;99.90;;;;;;5024230;28;20026;-71
2022/06/29 04:14:59;;;;;;;2.85;1.95;;;15.50;99.90;;;;;;5023685;28;21544;-70
2022/06/29 04:17:25;;;;;;;5.65;2.80;;;15.60;99.90;;;;;;5023917;28;20073;-70
2022/06/29 04:19:51;;;;;;;4.07;2.50;;;15.50;99.90;;;;;;5023967;28;20037;-71
2022/06/29 04:22:18;;;;;;;7.38;2.70;;;15.60;99.90;;;;;;5023596;28;20106;-70
2022/06/29 04:24:43;;;;;;;2.28;1.88;;;15.60;99.90;;;;;;5024084;28;20030;-69
2022/06/29 04:27:09;;;;;;;2.97;1.85;;;15.60;99.90;;;;;;5023971;28;20108;-70
2022/06/29 04:29:35;;;;;;;4.18;2.05;;;15.70;99.90;;;;;;5023626;28;20049;-69
2022/06/29 04:32:01;;;;;;;4.13;2.35;;;15.70;99.90;;;;;;5023391;28;20610;-70
2022/06/29 04:34:27;;;;;;;7.35;2.80;;;15.70;99.90;;;;;;5023985;28;20086;-70
2022/06/29 04:36:52;;;;;;;3.63;2.40;;;15.70;99.90;;;;;;5023683;28;20034;-69
2022/06/29 04:39:18;;;;;;;3.22;2.20;;;15.80;99.90;;;;;;5023350;28;20034;-70
2022/06/29 04:41:43;;;;;;;7.28;2.35;;;15.80;99.90;;;;;;5022665;28;20094;-70
2022/06/29 04:44:09;;;;;;;5.28;2.05;;;15.80;99.90;;;;;;5021712;28;20029;-69
2022/06/29 04:46:35;;;;;;;6.78;2.67;;;15.80;99.90;;;;;;5023290;28;20119;-71
2022/06/29 04:49:03;;;;;;;3.53;2.20;;;15.90;99.90;;;;;;5023265;28;20024;-70
2022/06/29 04:51:31;;;;;;;3.97;1.90;;;15.90;99.90;;;;;;5023038;28;20024;-70
2022/06/29 04:53:58;;;;;;;2.78;1.92;;;15.90;99.90;;;;;;5021678;28;20452;-70
2022/06/29 04:56:28;;;;;;;3.17;1.85;;;15.90;99.90;;;;;;5023125;28;20033;-71
2022/06/29 04:58:58;;;;;;;7.05;2.10;;;16.00;99.90;;;;;;5023093;28;20038;-71
2022/06/29 05:01:29;;;;;;;3.60;2.47;;;16.00;99.90;;;;;;5023169;28;20029;-70
2022/06/29 05:03:55;;;;;;;2.88;1.92;;;16.00;99.90;;;;;;5022358;28;20022;-69
2022/06/29 05:06:22;;;;;;;4.45;2.35;;;16.00;99.90;;;;;;5023010;28;20109;-71
2022/06/29 05:08:49;;;;;;;3.03;2.05;;;16.00;99.90;;;;;;5022923;28;20022;-71
2022/06/29 05:11:17;;;;;;;4.93;2.00;;;16.10;99.90;;;;;;5022858;28;20153;-71
2022/06/29 05:13:44;;;;;;;2.95;1.73;;;16.10;99.90;;;;;;5017773;28;20030;-69
2022/06/29 05:16:10;;;;;;;6.78;2.15;;;16.10;99.90;;;;;;5020865;28;20051;-70
2022/06/29 05:18:37;;;;;;;3.83;1.98;;;16.20;99.90;;;;;;5021746;28;20038;-68
2022/06/29 05:21:03;;;;;;;6.47;2.80;;;16.20;99.90;;;;;;5020847;28;20609;-69
2022/06/29 05:23:30;;;;;;;2.88;2.03;;;16.20;99.90;;;;;;5022829;28;20025;-67
2022/06/29 05:25:56;;;;;;;5.45;2.63;;;16.30;99.90;;;;;;5021510;28;20515;-68
2022/06/29 05:28:22;;;;;;;3.03;1.98;;;16.40;99.90;;;;;;5015725;28;20094;-69
2022/06/29 05:30:49;;;;;;;3.92;1.98;;;16.40;99.90;;;;;;5019884;28;20049;-69
2022/06/29 05:33:18;;;;;;;2.90;2.00;;;16.40;99.90;;;;;;5021310;28;20086;-69
2022/06/29 05:35:44;;;;;;;2.38;1.65;;;16.50;99.90;;;;;;5022205;28;20033;-69
2022/06/29 05:38:10;;;;;;;5.90;2.40;;;16.60;99.90;;;;;;5021082;28;20046;-69
2022/06/29 05:40:36;;;;;;;4.20;2.75;;;16.60;99.90;;;;;;5021461;28;20042;-68
2022/06/29 05:43:03;;;;;;;2.47;1.90;;;16.70;99.90;;;;;;5022096;28;20033;-69
2022/06/29 05:45:29;;;;;;;3.90;2.17;;;16.70;99.90;;;;;;5022294;28;20101;-68
2022/06/29 05:47:56;;;;;;;3.70;2.20;;;16.80;99.90;;;;;;5019129;28;20018;-69
2022/06/29 05:50:23;;;;;;;4.88;2.08;;;16.80;99.90;;;;;;5020236;28;20045;-67
2022/06/29 05:52:49;;;;;;;2.25;1.75;;;16.90;99.90;;;;;;5020991;28;20033;-67
2022/06/29 05:55:15;;;;;;;9.23;2.25;;;16.90;99.90;;;;;;5018613;28;20034;-66
2022/06/29 05:57:41;;;;;;;3.72;1.98;;;17.00;99.90;;;;;;5019198;28;20037;-67
2022/06/29 06:00:07;;;;;;;3.47;2.17;;;17.10;99.90;;;;;;5020924;28;20038;-67
2022/06/29 06:02:33;;;;;;;5.65;2.50;;;17.10;99.90;;;;;;5018849;28;20439;-68
2022/06/29 06:04:59;;;;;;;3.30;1.75;;;17.10;99.90;;;;;;5020125;28;20025;-68
2022/06/29 06:07:24;;;;;;;4.30;2.58;;;17.20;99.90;;;;;;5020337;28;20021;-67
2022/06/29 06:09:50;;;;;;;6.15;2.38;;;17.20;99.90;;;;;;5019557;28;20037;-68
2022/06/29 06:12:16;;;;;;;3.33;2.50;;;17.20;99.90;;;;;;5021471;28;20049;-68
2022/06/29 06:14:42;;;;;;;6.75;2.03;;;17.30;99.90;;;;;;5022038;28;20589;-67
2022/06/29 06:17:10;;;;;;;7.95;2.30;;;17.30;99.90;;;;;;5021505;28;20051;-69
2022/06/29 06:19:35;;;;;;;2.88;2.10;;;17.40;99.90;;;;;;5021637;28;20096;-68
2022/06/29 06:22:01;;;;;;;4.80;2.28;;;17.50;99.90;;;;;;5021031;28;20026;-68
2022/06/29 06:24:27;;;;;;;3.05;1.90;;;17.60;99.90;;;;;;5020754;28;20393;-67
2022/06/29 06:26:52;;;;;;;4.78;2.28;;;17.60;99.90;;;;;;5020969;28;20034;-68
2022/06/29 06:29:18;;;;;;;3.25;2.22;;;17.70;99.90;;;;;;5020979;28;20022;-68
2022/06/29 06:31:45;;;;;;;1.63;1.48;;;17.80;99.90;;;;;;5019974;28;20033;-71
2022/06/29 06:34:11;;;;;;;3.00;2.15;;;17.80;99.90;;;;;;5021406;28;20045;-69
2022/06/29 06:36:37;;;;;;;4.28;2.28;;;17.90;99.90;;;;;;5021569;28;20022;-70
2022/06/29 06:39:02;;;;;;;4.30;2.17;;;18.00;99.90;;;;;;5019076;28;20051;-68
2022/06/29 06:41:28;;;;;;;3.55;2.28;;;18.00;99.90;;;;;;5021701;28;20029;-68
2022/06/29 06:43:56;;;;;;;3.10;2.08;;;18.20;99.90;;;;;;5018924;28;20031;-70
2022/06/29 06:46:22;;;;;;;4.80;2.00;;;18.30;99.90;;;;;;5019999;28;20544;-70
2022/06/29 06:48:50;;;;;;;2.72;1.70;;;18.30;99.90;;;;;;5017590;28;20025;-71
2022/06/29 06:51:19;;;;;;;3.70;2.53;;;18.40;99.90;;;;;;5015164;28;20045;-69
2022/06/29 06:53:46;;;;;;;3.38;1.80;;;18.50;99.90;;;;;;5019060;28;20502;-69
2022/06/29 06:56:12;;;;;;;3.50;2.25;;;18.70;99.90;;;;;;5019251;28;20126;-70
2022/06/29 06:58:38;;;;;;;2.35;2.00;;;18.70;99.90;;;;;;5019755;28;20038;-68
2022/06/29 07:01:08;;;;;;;4.15;2.50;;;18.80;99.90;;;;;;5020739;28;20026;-70
2022/06/29 07:03:37;;;;;;;2.80;1.80;;;18.90;99.90;;;;;;5018905;28;20042;-68
2022/06/29 07:06:04;;;;;;;1.80;1.58;;;19.00;99.90;;;;;;5021321;28;20030;-69
2022/06/29 07:08:31;;;;;;;4.82;2.83;;;19.00;99.90;;;;;;5021081;28;20082;-68
2022/06/29 07:10:58;;;;;;;2.47;1.90;;;19.10;99.90;;;;;;5021724;28;20033;-68
2022/06/29 07:13:24;;;;;;;6.43;1.85;;;19.20;99.90;;;;;;5020275;28;20085;-68
2022/06/29 07:15:49;;;;;;;2.15;1.75;;;19.30;99.90;;;;;;5021354;28;20030;-67
2022/06/29 07:18:15;;;;;;;3.60;1.85;;;19.30;99.90;;;;;;5021271;28;20029;-68
2022/06/29 07:20:41;;;;;;;2.83;1.67;;;19.40;99.90;;;;;;5021279;28;20030;-68
2022/06/29 07:23:06;;;;;;;2.10;1.67;;;19.50;99.90;;;;;;5020393;28;20068;-69
2022/06/29 07:25:32;;;;;;;2.85;1.65;;;19.50;99.90;;;;;;5021855;28;20116;-69
2022/06/29 07:27:58;;;;;;;1.60;1.50;;;19.50;99.90;;;;;;5022984;28;20528;-68
2022/06/29 07:30:33;;;;;;;3.00;1.85;;;19.60;99.90;;;;;;5025002;28;20040;-72
2022/06/29 07:32:58;;;;;;;3.78;1.83;;;19.60;99.90;;;;;;5025124;28;20521;-69
2022/06/29 07:35:26;;;;;;;2.72;1.67;;;19.70;99.90;;;;;;5025191;28;20034;-69
2022/06/29 07:37:52;;;;;;;3.83;1.83;;;19.80;99.90;;;;;;5024983;28;20022;-69
2022/06/29 07:40:18;;;;;;;3.03;1.70;;;19.80;99.90;;;;;;5020750;28;20030;-70
2022/06/29 07:42:43;;;;;;;3.08;2.10;;;19.80;99.90;;;;;;5025274;28;20026;-68
2022/06/29 07:45:10;;;;;;;2.33;1.70;;;19.80;99.90;;;;;;5024641;28;20355;-69
2022/06/29 07:47:35;;;;;;;3.67;2.22;;;19.90;99.90;;;;;;5024089;28;20060;-69
2022/06/29 07:50:01;;;;;;;3.80;1.98;;;19.90;99.90;;;;;;5024325;28;20053;-69
2022/06/29 07:52:27;;;;;;;3.58;2.25;;;19.90;99.90;;;;;;5023802;28;20030;-70
2022/06/29 07:54:52;;;;;;;3.10;1.83;;;20.00;99.90;;;;;;5024103;28;20028;-67
2022/06/29 07:57:18;;;;;;;3.83;1.83;;;20.00;99.90;;;;;;5024357;28;20034;-69
2022/06/29 07:59:48;;;;;;;3.47;2.38;;;20.00;99.90;;;;;;5024060;28;20038;-70
2022/06/29 08:02:13;;;;;;;3.92;1.70;;;20.10;99.90;;;;;;5024137;28;20021;-68
2022/06/29 08:04:39;;;;;;;1.88;1.60;;;20.20;99.90;;;;;;5024524;28;20037;-69
2022/06/29 08:07:05;;;;;;;2.30;1.80;;;20.30;99.90;;;;;;5021806;28;20042;-70
2022/06/29 08:09:32;;;;;;;2.53;1.63;;;20.40;99.90;;;;;;5023018;28;20078;-70
2022/06/29 08:11:57;;;;;;;2.92;1.83;;;20.40;99.90;;;;;;5024496;28;20034;-68
2022/06/29 08:14:23;;;;;;;3.15;1.92;;;20.50;99.90;;;;;;5023716;28;20105;-69
2022/06/29 08:16:49;;;;;;;2.90;1.95;;;20.50;99.90;;;;;;5022841;28;20057;-70
2022/06/29 08:19:15;;;;;;;2.53;1.60;;;20.60;99.90;;;;;;5022211;28;20030;-69
2022/06/29 08:21:40;;;;;;;4.60;1.83;;;20.70;99.90;;;;;;5021303;28;20041;-67
2022/06/29 08:24:06;;;;;;;3.20;1.55;;;20.80;99.90;;;;;;5022777;28;20034;-69
2022/06/29 08:26:32;;;;;;;5.57;1.90;;;20.90;99.90;;;;;;5023927;28;20467;-69
2022/06/29 08:28:57;;;;;;;3.20;1.73;;;21.20;99.90;;;;;;5023409;28;20045;-67
2022/06/29 08:31:23;;;;;;;1.92;1.40;;;21.40;99.90;;;;;;5024056;28;20032;-67
2022/06/29 08:33:48;;;;;;;1.67;1.13;;;21.60;99.90;;;;;;5023696;28;20029;-69
2022/06/29 08:36:14;;;;;;;2.85;1.58;;;21.90;99.90;;;;;;5021704;28;20030;-68
2022/06/29 08:38:45;;;;;;;4.32;2.05;;;22.00;99.90;;;;;;5020140;28;20049;-68
2022/06/29 08:41:13;;;;;;;1.80;1.70;;;22.10;99.90;;;;;;5020808;28;20454;-67
2022/06/29 08:43:39;;;;;;;5.15;2.22;;;22.10;99.90;;;;;;5017355;28;20042;-69
2022/06/29 08:46:04;;;;;;;8.23;1.75;;;22.10;99.90;;;;;;5020240;28;20099;-68
2022/06/29 08:48:33;;;;;;;20.70;2.40;;;22.20;99.90;;;;;;5020747;28;20025;-68
2022/06/29 08:50:59;;;;;;;2.72;1.50;;;22.30;99.90;;;;;;5015632;28;20044;-67
2022/06/29 08:53:28;;;;;;;5.32;1.75;;;22.30;99.90;;;;;;5018607;28;20633;-68
2022/06/29 08:56:00;;;;;;;3.63;2.17;;;22.40;99.90;;;;;;5016712;28;20096;-68
2022/06/29 08:58:27;;;;;;;3.60;2.17;;;22.60;99.90;;;;;;5019834;28;20048;-68
2022/06/29 09:00:53;;;;;;;3.42;1.85;;;22.80;99.90;;;;;;5020020;28;20032;-68
2022/06/29 09:03:20;;;;;;;2.28;1.85;;;23.00;99.90;;;;;;5021217;28;20030;-71
2022/06/29 09:05:56;;;;;;;3.42;2.17;;;23.10;99.90;;;;;;5019374;28;20072;-68
2022/06/29 09:08:22;;;;;;;3.67;2.55;;;23.30;99.90;;;;;;5023595;28;20061;-71
2022/06/29 09:10:59;;;;;;;3.33;2.05;;;23.40;99.90;;;;;;5015691;28;20426;-75
2022/06/29 09:13:24;;;;;;;2.80;1.98;;;23.40;99.90;;;;;;5018683;28;20026;-69
2022/06/29 09:15:58;;;;;;;4.18;2.38;;;23.50;99.90;;;;;;5020203;28;20030;-71
2022/06/29 09:18:30;;;;;;;4.00;2.07;;;23.50;99.90;;;;;;5018960;28;20521;-69
2022/06/29 09:21:08;;;;;;;2.78;2.00;;;23.60;99.90;;;;;;5017006;28;20025;-68
2022/06/29 09:23:35;;;;;;;2.97;1.92;;;23.80;99.90;;;;;;5018200;28;20045;-69
2022/06/29 09:26:01;;;;;;;10.13;2.42;;;23.90;99.90;;;;;;5018007;28;20032;-69
2022/06/29 09:28:31;;;;;;;2.67;1.92;;;23.90;99.90;;;;;;5020519;28;20022;-70
2022/06/29 09:30:58;;;;;;;4.90;2.10;;;24.00;99.90;;;;;;5020412;28;20049;-69
2022/06/29 09:33:29;;;;;;;6.25;2.35;;;24.10;99.90;;;;;;5019271;28;20022;-70
2022/06/29 09:36:14;;;;;;;4.10;2.03;;;24.20;99.90;;;;;;5019967;28;20125;-69
2022/06/29 09:38:40;;;;;;;3.28;2.05;;;24.30;99.90;;;;;;5015895;28;20069;-70
2022/06/29 09:41:06;;;;;;;3.63;1.92;;;24.40;99.90;;;;;;5019536;28;20026;-72
2022/06/29 09:43:38;;;;;;;2.40;2.03;;;24.60;99.90;;;;;;5018704;28;20558;-72
2022/06/29 09:46:05;;;;;;;4.25;2.22;;;24.70;99.90;;;;;;5019056;28;20038;-69
2022/06/29 09:48:33;;;;;;;2.95;2.00;;;24.80;99.90;;;;;;5018545;28;20061;-70
2022/06/29 09:50:59;;;;;;;2.88;1.90;;;24.80;99.90;;;;;;5018491;28;20032;-70
2022/06/29 09:53:25;;;;;;;5.50;2.78;;;24.90;99.90;;;;;;5020011;28;20089;-70
2022/06/29 09:55:56;;;;;;;9.82;2.25;;;24.80;99.90;;;;;;5020421;28;20026;-71
2022/06/29 09:58:47;;;;;;;3.63;1.83;;;24.80;99.90;;;;;;5019341;28;20032;-69
2022/06/29 10:03:59;;;;;;;19.02;2.90;;;24.50;99.90;;;;;;5019101;28;20041;-69
2022/06/29 10:06:25;;;;;;;7.47;1.88;;;24.50;99.90;;;;;;5019450;28;20026;-67
2022/06/29 10:08:56;;;;;;;6.60;2.58;;;24.40;99.90;;;;;;5015053;28;20438;-66
2022/06/29 10:14:26;;;;;;;3.40;2.20;;;24.20;99.90;;;;;;5020259;28;20101;-69
2022/06/29 10:17:06;;;;;;;3.78;2.65;;;24.40;99.90;;;;;;5019202;28;20064;-69
2022/06/29 10:19:54;;;;;;;4.45;2.67;;;24.60;99.90;;;;;;5019779;28;20030;-66
2022/06/29 10:22:19;;;;;;;3.10;2.22;;;24.90;99.90;;;;;;5019466;28;20038;-69
2022/06/29 10:25:27;;;;;;;3.65;2.35;;;25.00;99.90;;;;;;5019503;28;20018;-70
2022/06/29 10:28:11;;;;;;;3.58;2.28;;;25.20;99.90;;;;;;5007325;28;20096;-74
2022/06/29 10:30:37;;;;;;;7.72;1.88;;;25.40;99.90;;;;;;5019149;28;20041;-67
2022/06/29 10:33:37;;;;;;;3.97;2.20;;;25.50;99.90;;;;;;5018212;28;20038;-68
2022/06/29 10:36:05;;;;;;;2.88;2.10;;;25.60;99.90;;;;;;5016825;28;20049;-70
2022/06/29 10:38:53;;;;;;;1.90;1.48;;;25.60;99.90;;;;;;5016476;28;20038;-72
2022/06/29 10:44:10;;;;;;;4.32;2.33;;;25.50;99.90;;;;;;5012542;28;20048;-71
2022/06/29 10:46:56;;;;;;;2.83;1.88;;;25.60;99.90;;;;;;5015064;28;20514;-71
2022/06/29 10:49:23;;;;;;;3.45;1.95;;;25.70;99.90;;;;;;5017957;28;20022;-70
2022/06/29 10:51:51;;;;;;;1.92;1.42;;;26.00;99.90;;;;;;5011282;28;20487;-70
2022/06/29 10:54:25;;;;;;;1.83;1.27;;;26.10;99.90;;;;;;5011679;28;20477;-67
2022/06/29 10:56:52;;;;;;;2.30;1.77;;;26.00;99.90;;;;;;5018134;28;20109;-68
2022/06/29 10:59:38;;;;;;;4.43;1.85;;;26.10;99.90;;;;;;5016976;28;20041;-70
2022/06/29 11:02:09;;;;;;;3.25;1.70;;;26.40;99.90;;;;;;5016461;28;20029;-67
2022/06/29 11:04:35;;;;;;;2.63;1.63;;;26.30;99.90;;;;;;5024118;28;20033;-67
2022/06/29 11:12:55;;;;;;;3.55;1.60;;;25.90;99.90;;;;;;5021936;28;20099;-68
2022/06/29 11:15:42;;;;;;;1.45;1.33;;;26.10;99.90;;;;;;5024272;28;20033;-70
2022/06/29 11:18:11;;;;;;;1.63;1.27;;;26.10;99.90;;;;;;5023737;28;20552;-74
2022/06/29 11:20:37;;;;;;;2.30;1.55;;;26.20;99.90;;;;;;5022598;28;20097;-72
2022/06/29 11:23:02;;;;;;;3.38;1.42;;;26.40;99.90;;;;;;5024367;28;20050;-71
2022/06/29 11:25:44;;;;;;;2.40;1.50;;;26.30;99.90;;;;;;5024442;28;20403;-68
2022/06/29 11:28:10;;;;;;;3.75;1.60;;;26.40;99.90;;;;;;5024159;28;20061;-75
2022/06/29 11:30:38;;;;;;;2.30;1.40;;;26.60;99.90;;;;;;5022970;28;20029;-70
2022/06/29 11:33:12;;;;;;;3.58;1.63;;;26.70;99.90;;;;;;5019693;28;20037;-71
2022/06/29 11:35:42;;;;;;;2.05;1.35;;;26.80;99.90;;;;;;5022731;28;20509;-68
2022/06/29 11:38:08;;;;;;;2.38;1.52;;;27.00;99.90;;;;;;5022258;28;20038;-69
2022/06/29 11:40:36;;;;;;;1.88;1.10;;;27.20;99.90;;;;;;5022569;28;20052;-71
2022/06/29 11:43:10;;;;;;;1.60;1.40;;;27.30;99.90;;;;;;5023175;28;20024;-68
2022/06/29 11:45:49;;;;;;;2.95;1.50;;;27.30;99.90;;;;;;5023626;28;20036;-74
2022/06/29 11:48:15;;;;;;;1.40;0.98;;;27.50;99.90;;;;;;5023373;28;20042;-67
2022/06/29 11:50:42;;;;;;;2.20;1.33;;;27.70;99.90;;;;;;5022202;28;20064;-68
2022/06/29 11:53:08;;;;;;;2.67;1.65;;;27.90;99.90;;;;;;5021210;28;20052;-72
2022/06/29 11:55:46;;;;;;;1.63;0.95;;;28.10;99.90;;;;;;5019856;28;20026;-70
2022/06/29 11:58:15;;;;;;;2.03;1.30;;;28.10;99.90;;;;;;5021652;28;20026;-67
2022/06/29 12:00:43;;;;;;;2.55;1.65;;;28.00;99.90;;;;;;5021379;28;20045;-72
2022/06/29 12:03:13;;;;;;;3.33;0.82;;;28.00;99.90;;;;;;5016760;28;20026;-72
2022/06/29 12:05:55;;;;;;;1.27;0.95;;;28.10;99.90;;;;;;5017575;28;20026;-73
2022/06/29 12:08:23;;;;;;;6.03;1.23;;;28.30;99.90;;;;;;5018219;28;20022;-72
2022/06/29 12:10:48;;;;;;;2.90;1.13;;;28.20;99.90;;;;;;5018976;28;20042;-73
2022/06/29 12:13:14;;;;;;;1.27;1.05;;;28.10;99.90;;;;;;5021443;28;20080;-71
2022/06/29 12:15:41;;;;;;;1.23;0.90;;;28.20;99.90;;;;;;5019485;28;20040;-70
2022/06/29 12:18:06;;;;;;;5.05;1.40;;;28.10;99.90;;;;;;5020448;28;20512;-68
2022/06/29 12:20:32;;;;;;;1.23;1.10;;;28.30;99.90;;;;;;5020634;28;20072;-69
2022/06/29 12:22:58;;;;;;;2.95;1.00;;;28.60;99.90;;;;;;5019729;28;20088;-69
2022/06/29 12:25:23;;;;;;;1.02;0.93;;;28.70;99.90;;;;;;5020663;28;20025;-72
2022/06/29 12:27:49;;;;;;;1.10;1.00;;;28.80;99.90;;;;;;5021851;28;20097;-72
2022/06/29 12:30:15;;;;;;;3.45;1.40;;;28.60;99.90;;;;;;5014503;28;20042;-73
2022/06/29 12:32:41;;;;;;;2.35;1.23;;;28.30;99.90;;;;;;5020839;28;20085;-73
2022/06/29 12:35:07;;;;;;;1.23;0.93;;;28.40;99.90;;;;;;5018470;28;20089;-69
2022/06/29 12:37:33;;;;;;;1.45;0.98;;;28.40;99.90;;;;;;5019903;28;20033;-68
2022/06/29 12:39:58;;;;;;;1.05;0.93;;;28.30;99.90;;;;;;5020736;28;20042;-71
2022/06/29 12:42:24;;;;;;;2.08;1.02;;;28.10;99.90;;;;;;5019782;28;20021;-70
2022/06/29 12:44:50;;;;;;;0.93;0.73;;;28.10;99.90;;;;;;5020450;28;20030;-68
2022/06/29 12:47:16;;;;;;;1.63;1.02;;;28.40;99.90;;;;;;4982339;28;1125748;-69
2022/06/29 12:49:43;;;;;;;1.25;0.82;;;28.70;99.90;;;;;;5021689;28;20127;-68
2022/06/29 12:52:09;;;;;;;1.70;1.17;;;29.00;99.90;;;;;;5020320;28;20029;-67
2022/06/29 12:54:36;;;;;;;1.92;1.10;;;29.20;99.90;;;;;;5022126;28;20191;-69
2022/06/29 12:57:01;;;;;;;5.45;1.25;;;29.20;99.90;;;;;;5022086;28;20446;-69
2022/06/29 12:59:27;;;;;;;1.90;1.25;;;29.20;99.90;;;;;;5021893;28;20057;-69
2022/06/29 13:01:53;;;;;;;1.08;0.95;;;29.20;99.90;;;;;;5021904;28;20022;-70
2022/06/29 13:04:19;;;;;;;1.55;0.90;;;29.40;99.90;;;;;;5021439;28;20049;-69